Time;durP1;ratioP1;P1;durP2;ratioP2;P2;SDS_P1;SDS_P2;PMS_P1;PMS_P2;Temp;Humidity;BMP_temperature;BMP_pressure;BME280_temperature;BME280_humidity;BME280_pressure;Samples;Min_cycle;Max_cycle;Signal;HPM_P1;HPM_P2
2022/05/13 00:01:15;;;;;;;;;;;;;;;13.03;68.00;95560.53;4975697;28;1028;-49
2022/05/13 00:03:41;;;;;;;;;;;;;;;12.92;68.63;95551.00;4974802;28;1914;-49
2022/05/13 00:06:07;;;;;;;;;;;;;;;12.88;68.94;95555.00;4975728;28;1049;-49
2022/05/13 00:08:33;;;;;;;;;;;;;;;12.96;68.29;95551.50;4975234;28;978;-49
2022/05/13 00:11:01;;;;;;;;;;;;;;;12.68;68.93;95557.97;4975357;28;1878;-49
2022/05/13 00:13:29;;;;;;;;;;;;;;;12.43;69.96;95565.13;4975283;28;1048;-49
2022/05/13 00:15:55;;;;;;;;;;;;;;;12.54;69.78;95563.13;4975374;28;969;-49
2022/05/13 00:18:21;;;;;;;;;;;;;;;12.68;69.29;95562.50;4975069;28;1026;-49
2022/05/13 00:20:47;;;;;;;;;;;;;;;12.63;69.52;95562.16;4975295;28;978;-49
2022/05/13 00:23:13;;;;;;;;;;;;;;;12.52;69.75;95559.78;4975305;28;1919;-49
2022/05/13 00:25:41;;;;;;;;;;;;;;;12.52;70.05;95557.97;4974821;28;1163;-49
2022/05/13 00:28:08;;;;;;;;;;;;;;;12.67;69.43;95552.78;4975135;28;1053;-49
2022/05/13 00:30:36;;;;;;;;;;;;;;;12.62;69.31;95550.59;4974703;28;1048;-49
2022/05/13 00:33:02;;;;;;;;;;;;;;;12.38;70.09;95555.88;4975238;28;942;-49
2022/05/13 00:35:28;;;;;;;;;;;;;;;12.35;70.23;95558.88;4974656;28;1213;-49
2022/05/13 00:37:54;;;;;;;;;;;;;;;12.32;70.30;95564.59;4974943;28;1057;-49
2022/05/13 00:40:21;;;;;;;;;;;;;;;12.33;70.36;95555.53;4974876;28;933;-49
2022/05/13 00:42:48;;;;;;;;;;;;;;;12.45;69.85;95559.59;4974540;28;1911;-49
2022/05/13 00:45:15;;;;;;;;;;;;;;;12.47;69.63;95554.91;4974455;28;1231;-49
2022/05/13 00:47:42;;;;;;;;;;;;;;;12.47;69.72;95560.28;4974563;28;972;-49
2022/05/13 00:50:09;;;;;;;;;;;;;;;12.31;69.97;95555.69;4974511;28;1068;-49
2022/05/13 00:52:35;;;;;;;;;;;;;;;12.02;71.05;95564.09;4975015;28;945;-49
2022/05/13 00:55:05;;;;;;;;;;;;;;;12.01;71.16;95557.06;4974429;28;1076;-49
2022/05/13 00:57:35;;;;;;;;;;;;;;;12.17;70.61;95559.00;4974612;28;963;-49
2022/05/13 01:00:02;;;;;;;;;;;;;;;11.98;71.28;95562.75;4974666;28;984;-49
2022/05/13 01:02:30;;;;;;;;;;;;;;;11.91;71.26;95557.19;4974705;28;1043;-49
2022/05/13 01:04:56;;;;;;;;;;;;;;;12.03;71.18;95565.81;4974357;28;1978;-49
2022/05/13 01:07:22;;;;;;;;;;;;;;;12.13;70.88;95566.50;4974404;28;1100;-49
2022/05/13 01:09:51;;;;;;;;;;;;;;;12.20;70.50;95561.34;4974242;28;1064;-49
2022/05/13 01:12:20;;;;;;;;;;;;;;;12.29;70.74;95563.03;4974355;28;1001;-49
2022/05/13 01:14:51;;;;;;;;;;;;;;;12.19;70.88;95563.19;4974081;28;1858;-49
2022/05/13 01:20:06;;;;;;;;;;;;;;;12.21;70.50;95563.84;4973154;28;1171;-49
2022/05/13 01:23:00;;;;;;;;;;;;;;;12.03;70.49;95561.28;4974176;28;1013;-49
2022/05/13 01:25:28;;;;;;;;;;;;;;;11.99;71.01;95561.75;4971796;28;1239;-49
2022/05/13 01:27:55;;;;;;;;;;;;;;;11.88;71.00;95568.19;4974112;28;1111;-49
2022/05/13 01:30:27;;;;;;;;;;;;;;;11.73;71.81;95565.25;4974282;28;1033;-49
2022/05/13 01:32:54;;;;;;;;;;;;;;;11.78;71.76;95560.28;4974224;28;955;-49
2022/05/13 01:35:20;;;;;;;;;;;;;;;11.86;71.16;95560.31;4974201;28;1025;-49
2022/05/13 01:37:46;;;;;;;;;;;;;;;11.90;71.37;95560.88;4974165;28;1084;-49
2022/05/13 01:40:13;;;;;;;;;;;;;;;11.85;71.45;95560.47;4974241;28;974;-49
2022/05/13 01:42:40;;;;;;;;;;;;;;;11.87;71.03;95567.34;4974203;28;1915;-49
2022/05/13 01:45:07;;;;;;;;;;;;;;;11.59;71.83;95568.50;4973973;28;1096;-49
2022/05/13 01:47:34;;;;;;;;;;;;;;;11.42;72.20;95565.72;4973609;28;1005;-49
2022/05/13 01:50:00;;;;;;;;;;;;;;;11.22;72.96;95570.41;4974308;28;1052;-49
2022/05/13 01:52:26;;;;;;;;;;;;;;;11.21;72.93;95562.53;4974144;28;979;-48
2022/05/13 01:54:52;;;;;;;;;;;;;;;11.06;73.90;95562.25;4974054;28;1009;-49
2022/05/13 01:57:19;;;;;;;;;;;;;;;11.03;74.18;95563.41;4973657;28;1044;-49
2022/05/13 01:59:45;;;;;;;;;;;;;;;11.19;74.04;95562.69;4973944;28;1013;-48
2022/05/13 02:02:11;;;;;;;;;;;;;;;11.31;73.27;95560.63;4973831;28;956;-48
2022/05/13 02:04:37;;;;;;;;;;;;;;;11.35;72.83;95567.34;4974061;28;1914;-48
2022/05/13 02:07:04;;;;;;;;;;;;;;;11.21;73.37;95565.22;4974017;28;971;-49
2022/05/13 02:09:30;;;;;;;;;;;;;;;11.25;73.39;95558.53;4974170;28;938;-49
2022/05/13 02:11:57;;;;;;;;;;;;;;;11.36;73.08;95560.16;4973754;28;1042;-49
2022/05/13 02:14:23;;;;;;;;;;;;;;;11.28;73.29;95560.94;4974065;28;975;-49
2022/05/13 02:16:49;;;;;;;;;;;;;;;11.18;73.52;95560.19;4973890;28;979;-49
2022/05/13 02:19:17;;;;;;;;;;;;;;;11.16;73.54;95573.72;4973904;28;1045;-49
2022/05/13 02:21:43;;;;;;;;;;;;;;;11.10;73.62;95569.81;4973800;28;1007;-49
2022/05/13 02:24:09;;;;;;;;;;;;;;;11.22;73.20;95572.25;4973804;28;1903;-49
2022/05/13 02:26:35;;;;;;;;;;;;;;;11.28;72.77;95576.97;4974777;28;1139;-49
2022/05/13 02:29:02;;;;;;;;;;;;;;;11.24;73.00;95564.91;4977311;28;1032;-49
2022/05/13 02:31:31;;;;;;;;;;;;;;;11.29;72.62;95570.66;4976879;28;1001;-49
2022/05/13 02:33:58;;;;;;;;;;;;;;;11.19;72.55;95567.19;4977080;28;1013;-49
2022/05/13 02:36:24;;;;;;;;;;;;;;;11.09;72.96;95578.84;4976773;28;1120;-49
2022/05/13 02:38:51;;;;;;;;;;;;;;;11.17;72.63;95569.19;4977063;28;1879;-48
2022/05/13 02:41:17;;;;;;;;;;;;;;;11.14;72.57;95567.69;4976602;28;1005;-48
2022/05/13 02:43:53;;;;;;;;;;;;;;;11.09;72.85;95573.47;4976979;28;1910;-49
2022/05/13 02:46:21;;;;;;;;;;;;;;;11.10;72.98;95569.81;4976917;28;969;-49
2022/05/13 02:48:47;;;;;;;;;;;;;;;11.07;72.94;95570.13;4976660;28;1033;-49
2022/05/13 02:51:13;;;;;;;;;;;;;;;11.14;72.40;95584.56;4976927;28;1040;-49
2022/05/13 02:53:39;;;;;;;;;;;;;;;11.05;72.56;95574.78;4976955;28;988;-49
2022/05/13 02:56:07;;;;;;;;;;;;;;;10.89;72.76;95572.81;4976497;28;1013;-49
2022/05/13 02:58:34;;;;;;;;;;;;;;;10.89;72.87;95583.50;4976568;28;1132;-49
2022/05/13 03:01:02;;;;;;;;;;;;;;;10.84;73.35;95590.31;4976808;28;1046;-49
2022/05/13 03:03:29;;;;;;;;;;;;;;;10.75;73.55;95594.72;4976796;28;1910;-49
2022/05/13 03:05:56;;;;;;;;;;;;;;;10.82;72.66;95598.47;4976423;28;1110;-49
2022/05/13 03:08:22;;;;;;;;;;;;;;;10.77;73.16;95591.91;4976357;28;1013;-49
2022/05/13 03:10:48;;;;;;;;;;;;;;;10.80;72.82;95586.25;4976640;28;1076;-49
2022/05/13 03:13:17;;;;;;;;;;;;;;;10.90;72.86;95590.53;4976149;28;1081;-49
2022/05/13 03:15:43;;;;;;;;;;;;;;;10.84;72.74;95593.00;4976337;28;1065;-49
2022/05/13 03:18:09;;;;;;;;;;;;;;;10.43;74.14;95598.72;4976183;28;1061;-49
2022/05/13 03:20:36;;;;;;;;;;;;;;;10.35;74.62;95599.47;4976290;28;1027;-49
2022/05/13 03:23:02;;;;;;;;;;;;;;;10.28;75.44;95603.72;4975998;28;1914;-48
2022/05/13 03:25:28;;;;;;;;;;;;;;;10.40;75.39;95603.53;4975985;28;1072;-49
2022/05/13 03:27:54;;;;;;;;;;;;;;;10.61;74.38;95601.44;4975863;28;1179;-49
2022/05/13 03:30:23;;;;;;;;;;;;;;;10.79;74.12;95600.63;4976279;28;973;-48
2022/05/13 03:32:49;;;;;;;;;;;;;;;10.85;73.97;95608.03;4975857;28;1029;-49
2022/05/13 03:35:16;;;;;;;;;;;;;;;10.81;73.62;95610.16;4975960;28;1021;-49
2022/05/13 03:37:42;;;;;;;;;;;;;;;10.64;73.79;95609.16;4974613;28;1009;-49
2022/05/13 03:40:09;;;;;;;;;;;;;;;10.58;74.34;95609.75;4976075;28;1061;-49
2022/05/13 03:42:37;;;;;;;;;;;;;;;10.67;74.15;95616.88;4975833;28;1125;-48
2022/05/13 03:45:04;;;;;;;;;;;;;;;10.63;74.62;95618.16;4975616;28;1910;-48
2022/05/13 03:47:30;;;;;;;;;;;;;;;10.84;74.51;95620.56;4975391;28;1064;-48
2022/05/13 03:49:56;;;;;;;;;;;;;;;11.21;73.53;95614.25;4975902;28;953;-49
2022/05/13 03:52:23;;;;;;;;;;;;;;;11.45;73.15;95610.91;4975709;28;968;-49
2022/05/13 03:54:49;;;;;;;;;;;;;;;11.76;72.66;95615.00;4975634;28;1210;-48
2022/05/13 03:57:15;;;;;;;;;;;;;;;11.92;71.90;95612.47;4975571;28;1076;-48
2022/05/13 03:59:41;;;;;;;;;;;;;;;11.98;71.83;95616.34;4975460;28;1017;-48
2022/05/13 04:02:07;;;;;;;;;;;;;;;12.23;71.12;95626.19;4975488;28;966;-50
2022/05/13 04:08:56;;;;;;;;;;;;;;;12.38;70.75;95623.75;4975417;28;1911;-48
2022/05/13 04:10:05;;;;;;;;;;;;;;;12.41;71.14;95626.13;4975577;28;1050;-48
2022/05/13 04:18:00;;;;;;;;;;;;;;;12.74;70.89;95641.50;4974893;28;1009;-48
2022/05/13 04:20:26;;;;;;;;;;;;;;;12.81;71.15;95642.53;4975358;28;1032;-48
2022/05/13 04:22:52;;;;;;;;;;;;;;;13.03;70.96;95638.41;4974889;28;1990;-48
2022/05/13 04:25:19;;;;;;;;;;;;;;;13.31;70.42;95638.16;4974861;28;1005;-48
2022/05/13 04:27:45;;;;;;;;;;;;;;;13.50;70.10;95645.88;4975087;28;1207;-49
2022/05/13 04:30:12;;;;;;;;;;;;;;;13.68;69.70;95651.09;4975114;28;955;-49
2022/05/13 04:32:39;;;;;;;;;;;;;;;13.92;69.42;95646.72;4974985;28;997;-49
2022/05/13 04:35:05;;;;;;;;;;;;;;;14.08;69.20;95648.56;4975244;28;1046;-48
2022/05/13 04:37:31;;;;;;;;;;;;;;;14.23;68.40;95642.28;4974621;28;1100;-49
2022/05/13 04:39:57;;;;;;;;;;;;;;;14.42;67.84;95645.63;4975030;28;1091;-49
2022/05/13 04:45:10;;;;;;;;;;;;;;;14.79;65.59;95657.63;4974534;28;1915;-51
2022/05/13 04:50:21;;;;;;;;;;;;;;;15.21;64.34;95659.06;4974397;28;1013;-51
2022/05/13 04:52:47;;;;;;;;;;;;;;;15.69;62.82;95649.00;4974786;28;969;-49
2022/05/13 04:55:13;;;;;;;;;;;;;;;15.96;61.17;95652.16;4974668;28;1045;-49
2022/05/13 04:57:39;;;;;;;;;;;;;;;16.53;59.30;95651.59;4974706;28;1053;-48
2022/05/13 05:00:07;;;;;;;;;;;;;;;17.33;56.76;95651.78;4974683;28;978;-48
2022/05/13 05:02:33;;;;;;;;;;;;;;;18.41;53.61;95658.00;4973550;28;1073;-48
2022/05/13 05:05:00;;;;;;;;;;;;;;;18.86;50.97;95658.53;4974235;28;1981;-48
2022/05/13 05:07:26;;;;;;;;;;;;;;;18.99;51.31;95660.47;4974525;28;1045;-49
2022/05/13 05:09:52;;;;;;;;;;;;;;;19.48;49.37;95658.53;4974226;28;1006;-48
2022/05/13 05:12:18;;;;;;;;;;;;;;;19.58;49.37;95667.16;4974277;28;1044;-49
2022/05/13 05:14:44;;;;;;;;;;;;;;;19.63;49.87;95664.63;4974511;28;934;-49
2022/05/13 05:17:10;;;;;;;;;;;;;;;20.21;48.87;95660.56;4974633;28;975;-49
2022/05/13 05:19:36;;;;;;;;;;;;;;;20.60;46.81;95657.03;4974081;28;1020;-50
2022/05/13 05:22:05;;;;;;;;;;;;;;;20.92;47.09;95667.19;4974612;28;1061;-50
2022/05/13 05:24:31;;;;;;;;;;;;;;;21.09;46.16;95673.81;4974121;28;1911;-49
2022/05/13 05:26:57;;;;;;;;;;;;;;;21.50;44.88;95675.38;4974499;28;1203;-50
2022/05/13 05:29:23;;;;;;;;;;;;;;;21.71;44.86;95670.66;4973947;28;1053;-50
2022/05/13 05:31:50;;;;;;;;;;;;;;;22.02;44.06;95673.41;4974518;28;1061;-49
2022/05/13 05:34:17;;;;;;;;;;;;;;;22.90;43.17;95671.63;4974244;28;1048;-50
2022/05/13 05:36:44;;;;;;;;;;;;;;;23.12;41.95;95669.28;4974529;28;1053;-49
2022/05/13 05:39:10;;;;;;;;;;;;;;;22.93;42.51;95668.41;4973946;28;1072;-50
2022/05/13 05:41:36;;;;;;;;;;;;;;;23.10;42.55;95667.88;4974050;28;1092;-50
2022/05/13 05:44:03;;;;;;;;;;;;;;;23.27;42.35;95663.47;4973959;28;1899;-50
2022/05/13 05:46:29;;;;;;;;;;;;;;;23.54;41.97;95672.16;4974275;28;1057;-50
2022/05/13 05:48:55;;;;;;;;;;;;;;;23.68;41.41;95666.53;4973760;28;1068;-50
2022/05/13 05:51:22;;;;;;;;;;;;;;;23.61;42.26;95665.78;4974022;28;1083;-51
2022/05/13 05:59:17;;;;;;;;;;;;;;;20.98;47.69;95655.47;4973886;28;962;-50
2022/05/13 06:01:43;;;;;;;;;;;;;;;20.55;49.57;95648.63;4975931;28;967;-49
2022/05/13 06:04:09;;;;;;;;;;;;;;;20.13;51.57;95644.47;4977725;28;1974;-50
2022/05/13 06:06:35;;;;;;;;;;;;;;;19.87;51.23;95636.13;4977524;28;1067;-50
2022/05/13 06:09:02;;;;;;;;;;;;;;;19.87;52.47;95638.00;4977255;28;982;-50
2022/05/13 06:11:28;;;;;;;;;;;;;;;19.90;51.91;95634.88;4977822;28;992;-50
2022/05/13 06:13:55;;;;;;;;;;;;;;;19.97;52.51;95633.00;4977685;28;959;-50
2022/05/13 06:16:22;;;;;;;;;;;;;;;20.01;51.85;95627.97;4977220;28;1037;-49
2022/05/13 06:18:48;;;;;;;;;;;;;;;19.97;52.18;95624.84;4977306;28;1008;-49
2022/05/13 06:21:14;;;;;;;;;;;;;;;19.96;52.62;95617.78;4977287;28;1042;-49
2022/05/13 06:23:41;;;;;;;;;;;;;;;20.40;52.46;95623.59;4977326;28;1914;-49
2022/05/13 06:26:07;;;;;;;;;;;;;;;20.56;51.39;95625.03;4977260;28;1222;-50
2022/05/13 06:28:34;;;;;;;;;;;;;;;20.74;51.25;95625.22;4977150;28;1139;-49
2022/05/13 06:31:00;;;;;;;;;;;;;;;21.02;50.22;95624.09;4976989;28;974;-50
2022/05/13 06:33:26;;;;;;;;;;;;;;;21.17;50.10;95621.09;4977135;28;1036;-49
2022/05/13 06:35:52;;;;;;;;;;;;;;;21.40;49.44;95621.41;4977026;28;938;-50
2022/05/13 06:38:20;;;;;;;;;;;;;;;21.37;49.71;95621.84;4976808;28;1104;-50
2022/05/13 06:40:47;;;;;;;;;;;;;;;21.62;48.85;95612.94;4977060;28;1032;-50
2022/05/13 06:43:13;;;;;;;;;;;;;;;21.86;48.78;95614.03;4977054;28;1919;-51
2022/05/13 06:45:41;;;;;;;;;;;;;;;21.98;48.09;95614.16;4976975;28;971;-50
2022/05/13 06:48:07;;;;;;;;;;;;;;;22.09;48.27;95605.25;4976811;28;951;-50
2022/05/13 06:50:34;;;;;;;;;;;;;;;22.18;48.49;95611.28;4976518;28;1009;-49
2022/05/13 06:53:00;;;;;;;;;;;;;;;22.44;47.23;95612.13;4976958;28;1000;-50
2022/05/13 06:55:26;;;;;;;;;;;;;;;22.51;47.57;95610.16;4976551;28;1120;-50
2022/05/13 06:57:52;;;;;;;;;;;;;;;22.45;47.34;95611.91;4976881;28;1057;-50
2022/05/13 07:00:18;;;;;;;;;;;;;;;22.55;47.81;95601.31;4976295;28;1120;-49
2022/05/13 07:02:45;;;;;;;;;;;;;;;22.81;47.14;95608.38;4976527;28;927;-49
2022/05/13 07:05:12;;;;;;;;;;;;;;;22.89;47.25;95607.22;4976344;28;1985;-50
2022/05/13 07:07:39;;;;;;;;;;;;;;;22.90;46.32;95608.09;4976321;28;1096;-50
2022/05/13 07:10:05;;;;;;;;;;;;;;;22.99;46.14;95596.66;4976556;28;950;-50
2022/05/13 07:12:32;;;;;;;;;;;;;;;23.06;46.18;95598.47;4976063;28;1132;-49
2022/05/13 07:14:58;;;;;;;;;;;;;;;23.13;45.55;95593.78;4976251;28;1079;-50
2022/05/13 07:17:25;;;;;;;;;;;;;;;23.30;45.39;95580.34;4976078;28;1096;-50
2022/05/13 07:19:51;;;;;;;;;;;;;;;23.46;44.93;95582.41;4976243;28;1026;-50
2022/05/13 07:22:17;;;;;;;;;;;;;;;23.22;44.22;95588.81;4976309;28;952;-49
2022/05/13 07:24:43;;;;;;;;;;;;;;;23.45;45.76;95582.63;4976339;28;1914;-50
2022/05/13 07:27:09;;;;;;;;;;;;;;;23.69;45.82;95583.56;4976291;28;1203;-50
2022/05/13 07:29:35;;;;;;;;;;;;;;;23.80;43.77;95576.50;4976054;28;1127;-50
2022/05/13 07:32:01;;;;;;;;;;;;;;;23.82;43.61;95577.09;4976098;28;963;-50
2022/05/13 07:34:27;;;;;;;;;;;;;;;23.88;43.75;95576.16;4975955;28;966;-50
2022/05/13 07:36:54;;;;;;;;;;;;;;;23.74;42.77;95573.59;4975947;28;1054;-50
2022/05/13 07:42:05;;;;;;;;;;;;;;;23.68;43.69;95573.72;4975897;28;1038;-50
2022/05/13 07:44:32;;;;;;;;;;;;;;;24.00;43.02;95565.25;4975546;28;1926;-50
2022/05/13 07:46:59;;;;;;;;;;;;;;;24.03;42.42;95562.88;4975940;28;1049;-50
2022/05/13 07:49:25;;;;;;;;;;;;;;;24.33;43.28;95560.03;4975462;28;1016;-50
2022/05/13 07:51:51;;;;;;;;;;;;;;;24.42;43.56;95565.19;4975414;28;1965;-50
2022/05/13 07:54:17;;;;;;;;;;;;;;;24.56;41.78;95558.41;4976187;28;986;-50
2022/05/13 07:56:43;;;;;;;;;;;;;;;24.40;42.05;95550.88;4975523;28;1111;-51
2022/05/13 07:59:09;;;;;;;;;;;;;;;24.51;43.25;95550.06;4975867;28;1013;-50
2022/05/13 08:01:36;;;;;;;;;;;;;;;24.66;42.28;95544.97;4975324;28;1048;-50
2022/05/13 08:04:02;;;;;;;;;;;;;;;24.53;41.15;95551.53;4975379;28;1915;-50
2022/05/13 08:06:28;;;;;;;;;;;;;;;24.63;41.31;95545.44;4975513;28;1000;-51
2022/05/13 08:08:58;;;;;;;;;;;;;;;24.92;40.52;95538.13;4975619;28;979;-50
2022/05/13 08:11:25;;;;;;;;;;;;;;;25.11;42.23;95538.78;4975154;28;1050;-51
2022/05/13 08:13:52;;;;;;;;;;;;;;;25.39;41.11;95539.09;4975310;28;990;-50
2022/05/13 08:16:22;;;;;;;;;;;;;;;25.54;41.23;95524.84;4974979;28;1005;-50
2022/05/13 08:18:49;;;;;;;;;;;;;;;25.90;41.67;95526.28;4975029;28;1013;-50
2022/05/13 08:21:15;;;;;;;;;;;;;;;26.09;39.24;95518.69;4975288;28;973;-50
2022/05/13 08:23:41;;;;;;;;;;;;;;;25.96;39.52;95519.84;4974577;28;1907;-51
2022/05/13 08:26:08;;;;;;;;;;;;;;;25.84;40.26;95521.81;4975117;28;1213;-50
2022/05/13 08:28:34;;;;;;;;;;;;;;;25.85;40.57;95516.06;4974922;28;1988;-50
2022/05/13 08:31:00;;;;;;;;;;;;;;;25.86;40.49;95512.25;4975011;28;996;-51
2022/05/13 08:33:27;;;;;;;;;;;;;;;26.10;38.88;95514.84;4975044;28;1064;-50
2022/05/13 08:35:55;;;;;;;;;;;;;;;26.29;39.52;95509.94;4975257;28;969;-50
2022/05/13 08:38:23;;;;;;;;;;;;;;;26.62;38.71;95513.75;4974815;28;1012;-50
2022/05/13 08:40:52;;;;;;;;;;;;;;;26.82;37.54;95505.75;4975204;28;958;-50
2022/05/13 08:43:23;;;;;;;;;;;;;;;26.92;37.26;95498.72;4974368;28;2001;-51
2022/05/13 08:45:53;;;;;;;;;;;;;;;26.85;38.51;95494.28;4974763;28;1965;-50
2022/05/13 08:48:27;;;;;;;;;;;;;;;26.82;38.39;95502.19;4974549;28;970;-50
2022/05/13 08:50:58;;;;;;;;;;;;;;;26.59;38.08;95501.34;4974712;28;1080;-50
2022/05/13 08:53:33;;;;;;;;;;;;;;;26.56;38.16;95492.75;4974455;28;1866;-49
2022/05/13 08:56:03;;;;;;;;;;;;;;;26.54;38.06;95495.78;4974933;28;1033;-50
2022/05/13 08:58:35;;;;;;;;;;;;;;;26.64;38.03;95489.63;4974377;28;1009;-50
2022/05/13 09:01:04;;;;;;;;;;;;;;;26.76;38.23;95478.53;4974638;28;1077;-50
2022/05/13 09:03:30;;;;;;;;;;;;;;;26.82;38.53;95485.72;4974748;28;1919;-49
2022/05/13 09:06:15;;;;;;;;;;;;;;;26.79;37.98;95487.06;4974573;28;1041;-48
2022/05/13 09:08:42;;;;;;;;;;;;;;;26.82;36.42;95478.31;4974692;28;996;-48
2022/05/13 09:11:08;;;;;;;;;;;;;;;26.98;36.49;95475.78;4974469;28;1013;-48
2022/05/13 09:13:52;;;;;;;;;;;;;;;26.96;36.28;95475.19;4974187;28;1856;-49
2022/05/13 09:16:25;;;;;;;;;;;;;;;26.91;37.45;95465.00;4974468;28;1041;-49
2022/05/13 09:19:03;;;;;;;;;;;;;;;27.00;35.96;95462.63;4974403;28;978;-48
2022/05/13 09:21:30;;;;;;;;;;;;;;;27.17;36.26;95460.63;4974452;28;1020;-49
2022/05/13 09:23:56;;;;;;;;;;;;;;;27.23;34.23;95450.53;4974425;28;2001;-49
2022/05/13 09:26:24;;;;;;;;;;;;;;;27.32;36.46;95449.00;4974167;28;1155;-49
2022/05/13 09:29:09;;;;;;;;;;;;;;;27.25;35.99;95443.72;4974167;28;1092;-49
2022/05/13 09:31:37;;;;;;;;;;;;;;;27.37;35.94;95434.50;4974090;28;1095;-49
2022/05/13 09:34:12;;;;;;;;;;;;;;;27.54;35.74;95440.69;4974099;28;940;-48
2022/05/13 09:36:38;;;;;;;;;;;;;;;27.83;34.58;95432.97;4977525;28;989;-49
2022/05/13 09:39:24;;;;;;;;;;;;;;;27.97;34.59;95427.88;4977928;28;1075;-48
2022/05/13 09:41:52;;;;;;;;;;;;;;;28.03;34.10;95426.81;4978182;28;962;-48
2022/05/13 09:44:20;;;;;;;;;;;;;;;27.94;33.74;95422.06;4977502;28;1981;-49
2022/05/13 09:46:51;;;;;;;;;;;;;;;28.03;30.99;95415.81;4978340;28;1034;-48
2022/05/13 09:49:17;;;;;;;;;;;;;;;28.13;32.87;95420.53;4977894;28;976;-48
2022/05/13 09:51:54;;;;;;;;;;;;;;;28.04;31.10;95416.66;4977983;28;962;-48
2022/05/13 09:54:25;;;;;;;;;;;;;;;27.90;32.34;95407.22;4977721;28;989;-49
2022/05/13 09:57:03;;;;;;;;;;;;;;;27.94;33.48;95406.41;4977784;28;1052;-48
2022/05/13 09:59:33;;;;;;;;;;;;;;;27.90;32.04;95397.03;4977754;28;981;-48
2022/05/13 10:02:13;;;;;;;;;;;;;;;27.79;31.90;95398.03;4978077;28;1038;-48
2022/05/13 10:04:39;;;;;;;;;;;;;;;27.72;32.34;95390.03;4977514;28;1914;-48
2022/05/13 10:07:06;;;;;;;;;;;;;;;27.81;31.48;95390.34;4977555;28;1021;-48
2022/05/13 10:15:25;;;;;;;;;;;;;;;27.92;30.26;95375.63;4977334;28;1034;-48
2022/05/13 10:17:55;;;;;;;;;;;;;;;28.06;30.52;95373.25;4977246;28;1073;-49
2022/05/13 10:20:33;;;;;;;;;;;;;;;28.13;29.18;95373.81;4977400;28;1209;-48
2022/05/13 10:23:11;;;;;;;;;;;;;;;28.11;28.53;95367.75;4977469;28;978;-48
2022/05/13 10:25:58;;;;;;;;;;;;;;;28.10;31.24;95366.13;4977238;28;1218;-49
2022/05/13 10:28:36;;;;;;;;;;;;;;;28.07;29.59;95360.31;4976860;28;1286;-48
2022/05/13 10:31:08;;;;;;;;;;;;;;;28.13;28.71;95353.75;4977440;28;955;-49
2022/05/13 10:33:46;;;;;;;;;;;;;;;28.03;28.37;95360.03;4977191;28;993;-49
2022/05/13 10:36:26;;;;;;;;;;;;;;;28.00;29.12;95353.16;4976207;28;970;-49
2022/05/13 10:39:07;;;;;;;;;;;;;;;28.03;28.36;95354.53;4977441;28;930;-49
2022/05/13 10:41:45;;;;;;;;;;;;;;;28.01;29.56;95346.56;4976815;28;1045;-48
2022/05/13 10:44:14;;;;;;;;;;;;;;;27.85;28.17;95347.53;4976766;28;1910;-48
2022/05/13 10:46:47;;;;;;;;;;;;;;;27.73;27.81;95341.41;4976230;28;1005;-49
2022/05/13 10:49:13;;;;;;;;;;;;;;;27.79;28.61;95332.94;4976862;28;992;-49
2022/05/13 10:51:40;;;;;;;;;;;;;;;27.95;27.17;95327.56;4975755;28;981;-49
2022/05/13 10:54:25;;;;;;;;;;;;;;;27.94;25.18;95334.97;4976653;28;1100;-49
2022/05/13 10:56:51;;;;;;;;;;;;;;;27.62;24.34;95329.53;4976849;28;950;-49
2022/05/13 10:59:20;;;;;;;;;;;;;;;27.62;26.05;95318.53;4976453;28;971;-49
2022/05/13 11:02:05;;;;;;;;;;;;;;;27.91;26.78;95315.47;4976508;28;1013;-49
2022/05/13 11:04:40;;;;;;;;;;;;;;;28.16;27.74;95312.81;4976564;28;1914;-49
2022/05/13 11:07:21;;;;;;;;;;;;;;;28.14;26.10;95306.78;4976731;28;970;-49
2022/05/13 11:09:53;;;;;;;;;;;;;;;27.96;25.59;95307.22;4976394;28;1046;-49
2022/05/13 11:12:29;;;;;;;;;;;;;;;27.98;27.06;95303.13;4991675;28;1071;-49
2022/05/13 11:15:01;;;;;;;;;;;;;;;27.98;25.61;95292.16;4976573;28;1020;-48
2022/05/13 11:17:30;;;;;;;;;;;;;;;27.99;26.08;95298.47;4976452;28;992;-48
2022/05/13 11:19:56;;;;;;;;;;;;;;;27.98;26.51;95288.56;4976164;28;1028;-49
2022/05/13 11:22:31;;;;;;;;;;;;;;;27.91;25.31;95286.06;4976388;28;981;-49
2022/05/13 11:28:02;;;;;;;;;;;;;;;27.99;25.08;95282.78;4973526;28;1219;-49
2022/05/13 11:30:43;;;;;;;;;;;;;;;28.05;27.47;95272.66;4975918;28;1017;-49
2022/05/13 11:33:11;;;;;;;;;;;;;;;28.21;26.79;95268.88;4976094;28;962;-49
2022/05/13 11:35:41;;;;;;;;;;;;;;;28.36;26.35;95270.00;4975990;28;986;-49
2022/05/13 11:38:24;;;;;;;;;;;;;;;28.27;26.24;95261.47;4976045;28;1051;-49
2022/05/13 11:41:04;;;;;;;;;;;;;;;28.13;25.26;95260.31;4975961;28;979;-49
2022/05/13 11:43:42;;;;;;;;;;;;;;;27.94;25.00;95257.22;4975831;28;1972;-49
2022/05/13 11:46:08;;;;;;;;;;;;;;;27.93;25.37;95252.84;4975732;28;1051;-49
2022/05/13 11:48:35;;;;;;;;;;;;;;;28.06;25.38;95257.81;4975551;28;1068;-49
2022/05/13 11:51:14;;;;;;;;;;;;;;;28.17;25.82;95244.94;4975609;28;971;-49
2022/05/13 11:53:43;;;;;;;;;;;;;;;28.28;24.79;95248.53;4975970;28;962;-49
2022/05/13 11:56:15;;;;;;;;;;;;;;;28.19;25.77;95238.09;4975502;28;1085;-49
2022/05/13 11:58:47;;;;;;;;;;;;;;;28.24;26.52;95235.31;4974677;28;998;-49
2022/05/13 12:01:14;;;;;;;;;;;;;;;28.40;26.77;95225.22;4974227;28;1021;-49
2022/05/13 12:03:40;;;;;;;;;;;;;;;28.64;26.26;95229.41;4975666;28;1915;-49
2022/05/13 12:06:10;;;;;;;;;;;;;;;28.72;26.31;95218.69;4975318;28;1034;-49
2022/05/13 12:08:36;;;;;;;;;;;;;;;28.75;27.00;95214.56;4975344;28;967;-49
2022/05/13 12:11:02;;;;;;;;;;;;;;;28.76;25.90;95218.94;4975469;28;970;-49
2022/05/13 12:13:40;;;;;;;;;;;;;;;28.73;27.25;95212.06;4975224;28;1104;-49
2022/05/13 12:16:22;;;;;;;;;;;;;;;28.58;25.98;95207.38;4975164;28;1025;-49
2022/05/13 12:18:52;;;;;;;;;;;;;;;28.43;26.13;95196.34;4974933;28;1045;-49
2022/05/13 12:21:23;;;;;;;;;;;;;;;28.29;24.05;95192.47;5111036;27;1382;-49
2022/05/13 12:23:54;;;;;;;;;;;;;;;28.19;23.43;95190.50;5111212;28;977;-50
2022/05/13 12:26:22;;;;;;;;;;;;;;;28.18;21.41;95186.94;5110828;28;1189;-50
2022/05/13 12:28:48;;;;;;;;;;;;;;;28.19;24.57;95190.50;5111041;28;1051;-49
2022/05/13 12:31:29;;;;;;;;;;;;;;;28.17;24.14;95173.47;5111008;28;1066;-49
2022/05/13 12:39:54;;;;;;;;;;;;;;;28.08;24.24;95175.09;5110624;28;1905;-50
2022/05/13 12:42:40;;;;;;;;;;;;;;;28.12;24.86;95166.03;5110611;28;968;-50
2022/05/13 12:45:09;;;;;;;;;;;;;;;28.22;24.47;95166.06;5103291;28;1191;-49
2022/05/13 12:47:56;;;;;;;;;;;;;;;28.14;24.39;95166.59;5110449;28;975;-50
2022/05/13 12:50:40;;;;;;;;;;;;;;;28.15;23.11;95156.41;5102941;28;1814;-50
2022/05/13 12:53:25;;;;;;;;;;;;;;;28.06;22.58;95156.16;5110685;28;1050;-50
2022/05/13 12:55:51;;;;;;;;;;;;;;;28.09;23.71;95144.59;5110431;28;952;-50
2022/05/13 12:58:18;;;;;;;;;;;;;;;28.05;22.79;95151.72;5110598;28;1015;-50
2022/05/13 13:00:45;;;;;;;;;;;;;;;28.04;24.03;95141.84;5110321;28;1909;-49
2022/05/13 13:03:13;;;;;;;;;;;;;;;28.16;25.81;95139.66;5110562;28;1019;-49
2022/05/13 13:05:41;;;;;;;;;;;;;;;28.19;23.76;95139.13;5110262;28;991;-50
2022/05/13 13:08:26;;;;;;;;;;;;;;;28.16;21.52;95125.91;5110484;28;1010;-50
2022/05/13 13:10:58;;;;;;;;;;;;;;;28.18;21.28;95123.72;5108996;28;1032;-50
2022/05/13 13:13:30;;;;;;;;;;;;;;;28.15;21.29;95121.53;5110304;28;1194;-49
2022/05/13 13:16:02;;;;;;;;;;;;;;;28.10;22.41;95112.47;5109886;28;1075;-50
2022/05/13 13:18:29;;;;;;;;;;;;;;;28.05;22.01;95116.00;5109963;28;972;-50
2022/05/13 13:20:58;;;;;;;;;;;;;;;28.05;22.30;95107.78;5109634;28;1997;-49
2022/05/13 13:23:29;;;;;;;;;;;;;;;28.11;22.54;95105.84;5110206;28;928;-49
2022/05/13 13:25:57;;;;;;;;;;;;;;;28.09;24.24;95103.38;5109741;28;1891;-50
2022/05/13 13:28:25;;;;;;;;;;;;;;;28.03;22.35;95091.53;5109706;28;1039;-49
2022/05/13 13:31:02;;;;;;;;;;;;;;;28.09;22.21;95094.31;5107063;28;1004;-50
2022/05/13 13:33:31;;;;;;;;;;;;;;;28.18;21.88;95089.94;5095962;28;1953;-50
2022/05/13 13:36:05;;;;;;;;;;;;;;;28.16;21.06;95081.94;5096192;28;1019;-49
2022/05/13 13:38:32;;;;;;;;;;;;;;;28.16;23.64;95083.88;5095983;28;1078;-49
2022/05/13 13:40:58;;;;;;;;;;;;;;;28.14;22.33;95075.09;5096154;28;1987;-50
2022/05/13 13:46:49;;;;;;;;;;;;;;;28.18;22.97;95071.50;5095804;28;699;-50
2022/05/13 13:49:17;;;;;;;;;;;;;;;28.17;23.44;95061.63;5095953;28;1038;-50
2022/05/13 13:51:48;;;;;;;;;;;;;;;28.24;21.94;95062.16;5095948;28;1047;-50